createdAt,value
2022-10-23T00:01:32.069Z,33.55
2022-10-23T00:04:35.047Z,38.30
2022-10-23T00:07:40.148Z,34.65
2022-10-23T00:10:46.395Z,32.67
2022-10-23T00:13:49.635Z,36.28
2022-10-23T00:16:52.627Z,33.58
2022-10-23T00:19:55.234Z,36.65
2022-10-23T00:22:58.142Z,35.10
2022-10-23T00:26:03.426Z,30.73
2022-10-23T00:29:06.844Z,34.50
2022-10-23T00:32:09.415Z,36.35
2022-10-23T00:35:12.245Z,32.78
2022-10-23T00:38:14.755Z,34.05
2022-10-23T00:41:24.798Z,36.77
2022-10-23T00:44:30.551Z,33.92
2022-10-23T00:47:33.369Z,32.15
2022-10-23T00:50:36.071Z,34.90
2022-10-23T00:53:39.413Z,32.55
2022-10-23T00:56:44.321Z,34.00
2022-10-23T00:59:47.162Z,35.75
2022-10-23T01:02:49.964Z,34.08
2022-10-23T01:06:13.720Z,33.72
2022-10-23T01:09:22.522Z,34.92
2022-10-23T01:12:35.563Z,37.43
2022-10-23T01:15:47.024Z,34.45
2022-10-23T01:19:03.999Z,32.38
2022-10-23T01:22:12.427Z,35.45
2022-10-23T01:25:32.164Z,34.97
2022-10-23T01:28:42.244Z,32.43
2022-10-23T01:31:56.652Z,36.72
2022-10-23T01:35:28.104Z,34.10
2022-10-23T01:38:38.174Z,36.65
2022-10-23T01:41:50.471Z,36.17
2022-10-23T01:45:12.386Z,36.97
2022-10-23T01:48:18.845Z,36.47
2022-10-23T01:51:24.541Z,33.45
2022-10-23T01:54:30.514Z,31.40
2022-10-23T01:57:34.081Z,31.10
2022-10-23T02:00:39.288Z,30.60
2022-10-23T02:03:44.239Z,34.75
2022-10-23T02:06:46.771Z,29.40
2022-10-23T02:09:49.886Z,33.17
2022-10-23T02:13:04.734Z,31.42
2022-10-23T02:16:24.477Z,32.03
2022-10-23T02:19:35.800Z,31.98
2022-10-23T02:22:43.241Z,30.77
2022-10-23T02:25:53.305Z,30.08
2022-10-23T02:29:08.807Z,30.48
2022-10-23T02:32:12.439Z,35.90
2022-10-23T02:35:18.002Z,29.52
2022-10-23T02:38:33.828Z,36.95
2022-10-23T02:42:06.509Z,31.83
2022-10-23T02:45:15.757Z,30.00
2022-10-23T02:48:27.227Z,33.07
2022-10-23T02:51:58.946Z,34.60
2022-10-23T02:55:19.542Z,32.17
2022-10-23T02:58:46.877Z,30.95
2022-10-23T03:01:57.725Z,31.80
2022-10-23T03:05:00.901Z,28.33
2022-10-23T03:08:05.741Z,33.10
2022-10-23T03:11:08.382Z,33.53
2022-10-23T03:14:12.723Z,32.35
2022-10-23T03:17:15.239Z,32.08
2022-10-23T03:20:21.904Z,37.53
2022-10-23T03:23:24.566Z,33.55
2022-10-23T03:26:27.397Z,31.60
2022-10-23T03:29:30.072Z,30.33
2022-10-23T03:32:33.090Z,35.15
2022-10-23T03:35:35.895Z,33.47
2022-10-23T03:38:38.807Z,32.08
2022-10-23T03:41:41.546Z,33.30
2022-10-23T03:44:44.594Z,35.58
2022-10-23T03:47:47.116Z,33.60
2022-10-23T03:50:50.059Z,31.03
2022-10-23T03:53:52.731Z,32.67
2022-10-23T03:56:57.515Z,32.75
2022-10-23T04:00:01.301Z,31.42
2022-10-23T04:03:05.332Z,31.62
2022-10-23T04:06:12.640Z,37.00
2022-10-23T04:09:15.281Z,33.88
2022-10-23T04:12:18.470Z,31.90
2022-10-23T04:15:21.106Z,32.20
2022-10-23T04:18:26.065Z,30.70
2022-10-23T04:21:28.601Z,33.10
2022-10-23T04:24:31.371Z,31.98
2022-10-23T04:27:34.501Z,35.30
2022-10-23T04:30:37.539Z,32.88
2022-10-23T04:33:40.577Z,33.25
2022-10-23T04:36:43.514Z,34.10
2022-10-23T04:39:46.125Z,34.50
2022-10-23T04:42:48.947Z,40.42
2022-10-23T04:45:51.709Z,43.30
2022-10-23T04:48:55.523Z,65.12
2022-10-23T04:51:58.341Z,33.10
2022-10-23T04:55:05.061Z,43.85
2022-10-23T04:58:07.730Z,32.67
2022-10-23T05:01:10.968Z,35.50
2022-10-23T05:04:14.072Z,36.28
2022-10-23T05:07:17.809Z,33.17
2022-10-23T05:10:21.149Z,38.05
2022-10-23T05:13:23.999Z,36.03
2022-10-23T05:16:46.935Z,38.20
2022-10-23T05:19:57.576Z,38.90
2022-10-23T05:23:00.806Z,36.10
2022-10-23T05:26:04.896Z,33.72
2022-10-23T05:29:07.669Z,32.63
2022-10-23T05:32:13.868Z,37.38
2022-10-23T05:35:19.892Z,36.22
2022-10-23T05:38:30.026Z,32.07
2022-10-23T05:41:32.597Z,30.90
2022-10-23T05:44:35.562Z,35.85
2022-10-23T05:47:38.592Z,30.58
2022-10-23T05:50:41.848Z,32.95
2022-10-23T05:53:50.063Z,31.73
2022-10-23T05:56:55.645Z,30.45
2022-10-23T05:59:58.428Z,32.72
2022-10-23T06:03:14.413Z,32.35
2022-10-23T06:06:17.807Z,29.77
2022-10-23T06:09:21.085Z,26.23
2022-10-23T06:12:24.785Z,27.80
2022-10-23T06:15:28.502Z,28.50
2022-10-23T06:18:32.675Z,29.37
2022-10-23T06:21:39.913Z,29.67
2022-10-23T06:24:44.130Z,28.60
2022-10-23T06:27:46.871Z,35.25
2022-10-23T06:30:49.877Z,29.15
2022-10-23T06:33:53.927Z,29.50
2022-10-23T06:36:56.967Z,28.73
2022-10-23T06:40:00.088Z,27.40
2022-10-23T06:43:04.888Z,28.50
2022-10-23T06:46:08.671Z,30.62
2022-10-23T06:49:18.974Z,33.45
2022-10-23T06:52:45.259Z,33.78
2022-10-23T06:55:44.552Z,32.90
2022-10-23T06:58:47.053Z,35.72
2022-10-23T07:01:50.299Z,34.75
2022-10-23T07:04:53.084Z,35.92
2022-10-23T07:07:56.848Z,33.42
2022-10-23T07:11:06.671Z,34.07
2022-10-23T07:14:09.953Z,34.28
2022-10-23T07:17:12.687Z,33.63
2022-10-23T07:20:15.670Z,34.95
2022-10-23T07:23:18.223Z,35.90
2022-10-23T07:26:21.195Z,36.73
2022-10-23T07:29:24.046Z,34.50
2022-10-23T07:32:28.633Z,33.60
2022-10-23T07:35:38.421Z,32.10
2022-10-23T07:38:42.404Z,32.92
2022-10-23T07:41:45.215Z,34.17
2022-10-23T07:44:48.039Z,30.02
2022-10-23T07:47:51.940Z,29.23
2022-10-23T07:51:00.874Z,26.75
2022-10-23T07:54:03.619Z,30.45
2022-10-23T07:57:07.522Z,23.87
2022-10-23T08:00:11.486Z,28.02
2022-10-23T08:03:15.954Z,29.02
2022-10-23T08:06:19.154Z,26.25
2022-10-23T08:09:22.244Z,25.75
2022-10-23T08:12:25.667Z,23.83
2022-10-23T08:15:29.758Z,18.75
2022-10-23T08:18:33.426Z,22.65
2022-10-23T08:21:36.706Z,20.73
2022-10-23T08:24:40.167Z,21.45
2022-10-23T08:27:43.325Z,21.60
2022-10-23T08:30:46.345Z,22.60
2022-10-23T08:36:57.100Z,21.08
2022-10-23T08:39:59.690Z,18.92
2022-10-23T08:43:13.594Z,20.07
2022-10-23T08:46:18.302Z,20.02
2022-10-23T08:49:54.691Z,16.10
2022-10-23T08:53:15.548Z,15.70
2022-10-23T08:56:35.127Z,15.77
2022-10-23T08:59:42.783Z,15.53
2022-10-23T09:02:48.947Z,15.63
2022-10-23T09:06:08.858Z,15.30
2022-10-23T09:09:27.239Z,15.48
2022-10-23T09:12:31.484Z,14.98
2022-10-23T09:15:42.886Z,16.60
2022-10-23T09:18:47.450Z,15.68
2022-10-23T09:21:50.477Z,13.40
2022-10-23T09:24:54.015Z,13.35
2022-10-23T09:28:01.592Z,13.57
2022-10-23T09:31:12.034Z,11.70
2022-10-23T09:34:23.451Z,13.38
2022-10-23T09:37:31.998Z,11.27
2022-10-23T09:40:43.211Z,12.63
2022-10-23T09:43:45.850Z,11.25
2022-10-23T09:47:11.364Z,11.43
2022-10-23T09:50:20.408Z,9.82
2022-10-23T09:53:29.078Z,9.90
2022-10-23T09:56:34.177Z,12.10
2022-10-23T09:59:37.239Z,9.00
2022-10-23T10:02:41.983Z,8.90
2022-10-23T10:05:56.617Z,8.00
2022-10-23T10:09:05.903Z,7.90
2022-10-23T10:12:24.712Z,8.65
2022-10-23T10:15:48.008Z,9.23
2022-10-23T10:19:32.611Z,8.17
2022-10-23T10:22:56.611Z,8.02
2022-10-23T10:26:01.745Z,9.05
2022-10-23T10:29:30.869Z,8.02
2022-10-23T10:32:52.041Z,6.62
2022-10-23T10:35:57.807Z,5.63
2022-10-23T10:39:03.264Z,7.75
2022-10-23T10:42:14.067Z,5.57
2022-10-23T10:45:27.731Z,7.15
2022-10-23T10:48:44.010Z,8.48
2022-10-23T10:52:27.558Z,9.90
2022-10-23T10:55:40.331Z,8.45
2022-10-23T10:58:49.078Z,7.68
2022-10-23T11:02:06.163Z,11.30
2022-10-23T11:05:23.031Z,6.82
2022-10-23T11:08:50.052Z,7.30
2022-10-23T11:12:03.573Z,6.97
2022-10-23T11:15:14.111Z,6.75
2022-10-23T11:18:24.414Z,6.65
2022-10-23T11:21:34.363Z,6.55
2022-10-23T11:24:45.401Z,6.63
2022-10-23T11:28:12.703Z,8.77
2022-10-23T11:31:44.639Z,7.87
2022-10-23T11:35:06.175Z,7.57
2022-10-23T11:38:19.286Z,6.32
2022-10-23T11:41:26.781Z,10.33
2022-10-23T11:44:44.055Z,6.18
2022-10-23T11:47:57.633Z,7.20
2022-10-23T11:51:02.849Z,9.63
2022-10-23T11:54:17.159Z,7.45
2022-10-23T11:57:20.295Z,5.20
2022-10-23T12:00:23.869Z,5.28
2022-10-23T12:03:40.976Z,7.62
2022-10-23T12:06:56.907Z,5.70
2022-10-23T12:10:06.141Z,5.85
2022-10-23T12:13:31.069Z,5.80
2022-10-23T12:16:35.493Z,5.95
2022-10-23T12:19:48.023Z,5.00
2022-10-23T12:23:09.627Z,5.80
2022-10-23T12:26:36.371Z,6.72
2022-10-23T12:29:57.202Z,4.93
2022-10-23T12:33:15.110Z,4.22
2022-10-23T12:36:42.380Z,4.62
2022-10-23T12:39:52.331Z,5.97
2022-10-23T12:42:56.444Z,6.07
2022-10-23T12:46:04.819Z,4.43
2022-10-23T12:49:20.041Z,5.82
2022-10-23T12:52:24.979Z,5.75
2022-10-23T12:55:45.272Z,5.55
2022-10-23T12:58:53.598Z,6.57
2022-10-23T13:01:56.492Z,5.37
2022-10-23T13:05:01.591Z,6.28
2022-10-23T13:08:05.528Z,6.03
2022-10-23T13:11:16.729Z,7.75
2022-10-23T13:14:31.110Z,5.75
2022-10-23T13:17:58.628Z,5.97
2022-10-23T13:24:19.162Z,7.00
2022-10-23T13:27:27.035Z,6.45
2022-10-23T13:30:37.991Z,7.53
2022-10-23T13:33:50.974Z,6.57
2022-10-23T13:36:58.567Z,6.35
2022-10-23T13:40:03.971Z,5.87
2022-10-23T13:43:14.596Z,7.72
2022-10-23T13:46:22.868Z,5.50
2022-10-23T13:49:25.583Z,6.67
2022-10-23T13:52:28.476Z,6.57
2022-10-23T13:55:31.694Z,6.40
2022-10-23T13:58:34.786Z,7.57
2022-10-23T14:01:38.158Z,8.48
2022-10-23T14:04:41.143Z,8.87
2022-10-23T14:07:44.030Z,9.82
2022-10-23T14:10:47.370Z,8.30
2022-10-23T14:13:50.784Z,8.05
2022-10-23T14:16:54.791Z,11.85
2022-10-23T14:19:57.364Z,10.37
2022-10-23T14:23:00.224Z,10.13
2022-10-23T14:26:04.040Z,9.55
2022-10-23T14:29:12.386Z,9.60
2022-10-23T14:32:21.171Z,10.10
2022-10-23T14:35:25.540Z,11.80
2022-10-23T14:38:28.331Z,9.25
2022-10-23T14:41:31.085Z,9.93
2022-10-23T14:44:33.751Z,12.18
2022-10-23T14:47:36.593Z,10.48
2022-10-23T14:50:44.470Z,11.03
2022-10-23T14:53:48.369Z,11.57
2022-10-23T14:56:50.907Z,21.42
2022-10-23T14:59:56.815Z,15.65
2022-10-23T15:02:59.930Z,15.68
2022-10-23T15:06:02.775Z,17.47
2022-10-23T15:09:05.783Z,16.25
2022-10-23T15:12:08.673Z,15.80
2022-10-23T15:15:11.467Z,17.33
2022-10-23T15:18:14.810Z,15.07
2022-10-23T15:21:17.709Z,19.43
2022-10-23T15:24:23.232Z,13.60
2022-10-23T15:27:25.755Z,13.45
2022-10-23T15:30:28.735Z,12.98
2022-10-23T15:33:31.338Z,15.10
2022-10-23T15:36:34.620Z,14.73
2022-10-23T15:39:37.154Z,16.92
2022-10-23T15:42:41.080Z,15.27
2022-10-23T15:45:45.242Z,15.00
2022-10-23T15:48:48.251Z,13.50
2022-10-23T15:51:51.858Z,15.17
2022-10-23T15:54:54.883Z,11.85
2022-10-23T15:58:02.017Z,14.52
2022-10-23T16:01:06.668Z,12.73
2022-10-23T16:04:12.503Z,14.73
2022-10-23T16:07:15.226Z,13.67
2022-10-23T16:10:18.821Z,15.85
2022-10-23T16:13:21.338Z,13.75
2022-10-23T16:16:24.685Z,13.20
2022-10-23T16:19:27.304Z,10.88
2022-10-23T16:22:30.380Z,11.43
2022-10-23T16:25:36.445Z,12.27
2022-10-23T16:28:39.409Z,11.88
2022-10-23T16:31:42.264Z,14.40
2022-10-23T16:34:45.748Z,12.77
2022-10-23T16:37:48.495Z,15.43
2022-10-23T16:40:53.272Z,11.95
2022-10-23T16:44:00.692Z,11.07
2022-10-23T16:47:04.791Z,12.30
2022-10-23T16:50:08.053Z,17.70
2022-10-23T16:53:10.868Z,13.40
2022-10-23T16:56:18.059Z,14.27
2022-10-23T16:59:21.114Z,13.50
2022-10-23T17:02:24.004Z,10.50
2022-10-23T17:05:27.149Z,11.43
2022-10-23T17:08:30.090Z,10.40
2022-10-23T17:11:35.017Z,14.32
2022-10-23T17:14:38.740Z,15.05
2022-10-23T17:17:43.060Z,15.00
2022-10-23T17:20:45.963Z,15.20
2022-10-23T17:23:49.513Z,14.80
2022-10-23T17:26:54.698Z,12.13
2022-10-23T17:29:58.137Z,11.43
2022-10-23T17:33:01.971Z,17.80
2022-10-23T17:36:05.644Z,15.43
2022-10-23T17:39:10.423Z,15.50
2022-10-23T17:42:13.337Z,12.77
2022-10-23T17:45:15.884Z,14.43
2022-10-23T17:48:18.846Z,14.52
2022-10-23T17:51:24.031Z,15.85
2022-10-23T17:54:28.589Z,11.17
2022-10-23T17:57:31.973Z,10.50
2022-10-23T18:00:36.956Z,10.15
2022-10-23T18:03:40.642Z,12.55
2022-10-23T18:06:48.572Z,14.40
2022-10-23T18:09:51.591Z,11.40
2022-10-23T18:12:54.777Z,11.43
2022-10-23T18:16:05.978Z,14.15
2022-10-23T18:19:09.087Z,10.90
2022-10-23T18:22:12.298Z,10.63
2022-10-23T18:25:18.688Z,13.73
2022-10-23T18:28:23.386Z,12.20
2022-10-23T18:31:29.643Z,13.45
2022-10-23T18:34:32.950Z,12.70
2022-10-23T18:37:41.224Z,14.87
2022-10-23T18:40:44.775Z,12.97
2022-10-23T18:43:47.597Z,12.43
2022-10-23T18:46:51.311Z,16.33
2022-10-23T18:49:54.047Z,12.60
2022-10-23T18:52:57.351Z,13.85
2022-10-23T18:56:00.855Z,15.13
2022-10-23T18:59:06.383Z,15.13
2022-10-23T19:02:11.160Z,13.65
2022-10-23T19:05:15.246Z,13.52
2022-10-23T19:08:18.133Z,11.27
2022-10-23T19:11:23.392Z,11.07
2022-10-23T19:14:28.764Z,10.80
2022-10-23T19:17:32.857Z,13.40
2022-10-23T19:20:42.894Z,14.85
2022-10-23T19:23:47.753Z,12.73
2022-10-23T19:26:50.498Z,13.27
2022-10-23T19:29:54.707Z,12.48
2022-10-23T19:32:57.696Z,13.40
2022-10-23T19:36:05.212Z,13.38
2022-10-23T19:39:08.617Z,12.27
2022-10-23T19:42:12.443Z,10.53
2022-10-23T19:45:15.786Z,14.65
2022-10-23T19:48:19.160Z,13.70
2022-10-23T19:51:24.593Z,11.40
2022-10-23T19:54:28.528Z,14.13
2022-10-23T19:57:37.441Z,10.50
2022-10-23T20:00:41.098Z,12.63
2022-10-23T20:03:45.668Z,10.38
2022-10-23T20:06:49.288Z,11.07
2022-10-23T20:09:52.737Z,10.77
2022-10-23T20:13:02.365Z,10.03
2022-10-23T20:16:23.707Z,11.12
2022-10-23T20:19:27.651Z,10.80
2022-10-23T20:22:30.959Z,10.15
2022-10-23T20:25:33.760Z,8.93
2022-10-23T20:28:37.376Z,10.67
2022-10-23T20:31:40.594Z,9.43
2022-10-23T20:34:43.768Z,10.70
2022-10-23T20:37:46.722Z,9.43
2022-10-23T20:40:49.908Z,11.38
2022-10-23T20:43:53.191Z,11.13
2022-10-23T20:46:56.373Z,12.82
2022-10-23T20:49:59.069Z,12.95
2022-10-23T20:53:02.126Z,10.95
2022-10-23T20:56:15.492Z,10.25
2022-10-23T20:59:18.981Z,10.97
2022-10-23T21:02:22.083Z,13.80
2022-10-23T21:05:25.063Z,11.45
2022-10-23T21:08:28.010Z,10.95
2022-10-23T21:11:32.547Z,11.20
2022-10-23T21:14:37.787Z,9.57
2022-10-23T21:17:41.165Z,10.00
2022-10-23T21:20:45.125Z,11.35
2022-10-23T21:23:49.914Z,11.98
2022-10-23T21:26:52.742Z,12.20
2022-10-23T21:29:55.616Z,12.33
2022-10-23T21:32:58.429Z,12.60
2022-10-23T21:36:13.618Z,13.60
2022-10-23T21:39:16.808Z,13.10
2022-10-23T21:42:19.759Z,15.25
2022-10-23T21:45:22.398Z,16.70
2022-10-23T21:48:28.467Z,14.80
2022-10-23T21:51:35.397Z,15.43
2022-10-23T21:54:40.664Z,14.52
2022-10-23T21:57:43.112Z,16.85
2022-10-23T22:00:46.068Z,19.57
2022-10-23T22:03:49.305Z,16.23
2022-10-23T22:06:51.854Z,14.85
2022-10-23T22:09:54.631Z,15.48
2022-10-23T22:12:57.144Z,17.40
2022-10-23T22:16:04.167Z,16.13
2022-10-23T22:19:07.030Z,15.80
2022-10-23T22:22:10.053Z,16.15
2022-10-23T22:25:12.536Z,16.10
2022-10-23T22:28:15.493Z,16.08
2022-10-23T22:31:20.711Z,16.00
2022-10-23T22:34:52.680Z,18.15
2022-10-23T22:37:55.167Z,17.23
2022-10-23T22:41:00.850Z,17.33
2022-10-23T22:44:03.444Z,16.52
2022-10-23T22:47:06.928Z,16.00
2022-10-23T22:50:09.627Z,18.12
2022-10-23T22:53:12.487Z,15.27
2022-10-23T22:56:17.971Z,18.42
2022-10-23T22:59:20.833Z,15.98
2022-10-23T23:02:23.991Z,17.63
2022-10-23T23:05:26.962Z,15.90
2022-10-23T23:08:29.612Z,16.12
2022-10-23T23:11:40.768Z,16.98
2022-10-23T23:14:54.567Z,14.75
2022-10-23T23:17:57.368Z,16.37
2022-10-23T23:21:04.486Z,15.98
2022-10-23T23:24:07.433Z,17.00
2022-10-23T23:27:10.019Z,16.92
2022-10-23T23:30:12.859Z,18.33
2022-10-23T23:33:19.019Z,15.97
2022-10-23T23:36:24.824Z,18.80
2022-10-23T23:39:28.584Z,18.37
2022-10-23T23:42:31.663Z,18.45
2022-10-23T23:45:34.291Z,19.25
2022-10-23T23:48:37.594Z,21.13
2022-10-23T23:51:40.032Z,19.37
2022-10-23T23:54:42.750Z,20.73
2022-10-23T23:57:45.646Z,20.48
